Time;durP1;ratioP1;P1;durP2;ratioP2;P2;SDS_P1;SDS_P2;PMS_P1;PMS_P2;Temp;Humidity;BMP_temperature;BMP_pressure;BME280_temperature;BME280_humidity;BME280_pressure;Samples;Min_cycle;Max_cycle;Signal;HPM_P1;HPM_P2
2022/01/27 00:04:13;;;;;;;9.73;6.80;;;;;;;7.73;53.69;99914.56;1764215;81;21007;-65
2022/01/27 00:06:35;;;;;;;10.63;7.60;;;;;;;7.70;53.63;99910.38;1784365;78;21152;-66
2022/01/27 00:09:14;;;;;;;8.10;6.62;;;;;;;7.70;53.58;99913.03;1817809;78;21041;-65
2022/01/27 00:11:34;;;;;;;12.23;7.23;;;;;;;7.69;53.53;99914.02;1805995;77;21049;-65
2022/01/27 00:14:02;;;;;;;11.12;6.65;;;;;;;7.68;53.47;99912.34;1810907;78;21084;-65
2022/01/27 00:16:31;;;;;;;10.90;7.22;;;;;;;7.67;53.42;99918.13;1801225;78;20997;-64
2022/01/27 00:18:57;;;;;;;10.98;7.15;;;;;;;7.67;53.37;99911.52;1793904;78;21058;-64
2022/01/27 00:21:26;;;;;;;10.15;7.87;;;;;;;7.65;53.32;99917.94;1798918;77;21478;-65
2022/01/27 00:23:53;;;;;;;9.13;6.78;;;;;;;7.60;53.29;99905.62;1795884;78;21655;-66
2022/01/27 00:26:19;;;;;;;11.20;7.80;;;;;;;7.64;53.21;99914.44;1823630;77;21028;-64
2022/01/27 00:28:47;;;;;;;10.48;7.35;;;;;;;7.62;53.18;99917.72;1798140;77;21536;-65
2022/01/27 00:31:14;;;;;;;10.53;7.65;;;;;;;7.61;53.13;99913.42;1805536;77;21140;-65
2022/01/27 00:33:40;;;;;;;10.75;7.75;;;;;;;7.61;53.10;99911.25;1799401;78;21606;-64
2022/01/27 00:36:07;;;;;;;11.38;7.95;;;;;;;7.60;53.05;99904.30;1793262;78;21104;-66
2022/01/27 00:38:34;;;;;;;10.32;8.03;;;;;;;7.61;53.01;99904.63;1796288;78;21001;-66
2022/01/27 00:41:00;;;;;;;11.40;8.15;;;;;;;7.58;52.96;99896.52;1827028;77;21510;-65
2022/01/27 00:43:27;;;;;;;11.73;8.20;;;;;;;7.57;52.92;99894.86;1820787;78;21117;-66
2022/01/27 00:45:54;;;;;;;10.75;8.18;;;;;;;7.57;52.86;99897.51;1831040;77;20993;-64
2022/01/27 00:48:20;;;;;;;11.88;8.68;;;;;;;7.57;52.83;99899.30;1833221;77;21274;-63
2022/01/27 00:50:51;;;;;;;11.50;8.83;;;;;;;7.55;52.79;99898.14;1823571;78;21023;-65
2022/01/27 00:55:48;;;;;;;11.88;8.70;;;;;;;7.54;52.70;99900.92;1802330;78;21470;-64
2022/01/27 00:58:37;;;;;;;12.50;9.03;;;;;;;7.54;52.67;99903.57;1806304;77;20997;-64
2022/01/27 01:00:54;;;;;;;12.63;9.23;;;;;;;7.53;52.62;99901.89;1803268;77;21049;-64
2022/01/27 01:03:26;;;;;;;13.48;9.28;;;;;;;7.51;52.58;99900.70;1792487;79;21048;-66
2022/01/27 01:06:17;;;;;;;13.60;9.48;;;;;;;7.50;52.55;99905.66;1804391;77;21046;-64
2022/01/27 01:16:15;;;;;;;13.88;9.65;;;;;;;7.47;52.43;99899.33;1804450;78;21576;-64
2022/01/27 01:18:50;;;;;;;13.55;10.53;;;;;;;7.45;52.39;99903.43;1802090;77;21556;-66
2022/01/27 01:32:08;;;;;;;13.72;10.13;;;;;;;7.42;52.24;99893.66;1722963;80;21033;-64
2022/01/27 01:34:27;;;;;;;15.32;11.55;;;;;;;7.40;52.21;99891.16;1767220;79;21208;-63
2022/01/27 01:36:57;;;;;;;14.43;10.85;;;;;;;7.41;52.20;99890.66;1774325;80;21051;-66
2022/01/27 01:39:34;;;;;;;14.80;11.38;;;;;;;7.39;52.14;99886.01;1748370;79;21107;-64
2022/01/27 01:42:03;;;;;;;15.35;11.08;;;;;;;7.36;52.14;99879.21;1755168;80;21055;-64
2022/01/27 01:44:29;;;;;;;14.05;11.48;;;;;;;7.38;52.09;99875.08;1764256;80;21029;-65
2022/01/27 01:46:56;;;;;;;14.85;10.75;;;;;;;7.38;52.05;99876.40;1783148;79;23259;-64
2022/01/27 01:49:26;;;;;;;13.18;10.48;;;;;;;7.36;52.03;99872.60;1764672;79;21054;-65
2022/01/27 01:51:51;;;;;;;13.85;10.65;;;;;;;7.37;52.00;99874.75;1777039;78;21035;-64
2022/01/27 01:54:18;;;;;;;16.40;11.25;;;;;;;7.35;51.95;99866.95;1772359;80;21128;-65
2022/01/27 01:56:45;;;;;;;14.55;10.95;;;;;;;7.36;51.93;99875.71;1778311;80;21096;-64
2022/01/27 01:59:11;;;;;;;14.60;11.40;;;;;;;7.36;51.91;99884.50;1772931;79;23326;-64
2022/01/27 02:01:38;;;;;;;14.20;11.43;;;;;;;7.36;51.87;99883.64;1767152;79;21077;-64
2022/01/27 02:04:06;;;;;;;15.18;11.83;;;;;;;7.36;51.85;99879.67;1747447;81;21014;-64
2022/01/27 02:06:38;;;;;;;16.07;12.07;;;;;;;7.35;51.80;99883.31;1773094;80;21054;-64
2022/01/27 02:19:52;;;;;;;14.65;10.93;;;;;;;7.34;51.62;99864.45;1758261;79;22448;-65
2022/01/27 02:22:20;;;;;;;16.27;11.40;;;;;;;7.32;51.58;99861.98;1781785;79;21019;-64
2022/01/27 02:24:46;;;;;;;14.30;10.60;;;;;;;7.32;51.56;99861.13;1766379;79;21187;-66
2022/01/27 02:27:14;;;;;;;13.80;10.55;;;;;;;7.32;51.54;99855.84;1782576;80;21571;-64
2022/01/27 02:29:41;;;;;;;13.53;11.03;;;;;;;7.31;51.52;99855.52;1756891;79;20976;-63
2022/01/27 02:32:07;;;;;;;12.98;9.93;;;;;;;7.31;51.49;99858.16;1763270;80;21036;-64
2022/01/27 02:34:34;;;;;;;14.40;10.60;;;;;;;7.31;51.44;99855.52;1774118;80;21033;-65
2022/01/27 02:37:01;;;;;;;14.90;10.35;;;;;;;7.29;51.43;99847.22;1752837;80;21753;-65
2022/01/27 02:39:28;;;;;;;11.75;10.00;;;;;;;7.29;51.38;99847.22;1783538;79;21048;-64
2022/01/27 02:42:17;;;;;;;12.18;9.58;;;;;;;7.29;51.37;99849.86;1764820;79;21060;-66
2022/01/27 02:44:55;;;;;;;12.90;10.00;;;;;;;7.30;51.34;99849.37;1731232;81;21091;-62
2022/01/27 02:47:23;;;;;;;13.98;10.43;;;;;;;7.28;51.30;99846.90;1764106;81;21045;-64
2022/01/27 02:49:50;;;;;;;13.48;9.83;;;;;;;7.28;51.28;99853.97;1776057;79;21810;-64
2022/01/27 02:52:17;;;;;;;14.87;10.35;;;;;;;7.27;51.25;99856.28;1792992;79;21035;-64
2022/01/27 02:54:43;;;;;;;13.53;10.13;;;;;;;7.26;51.23;99856.78;1768050;80;21030;-64
2022/01/27 02:57:10;;;;;;;15.70;10.80;;;;;;;7.27;51.22;99857.61;1781786;79;20992;-64
2022/01/27 02:59:37;;;;;;;13.28;9.80;;;;;;;7.26;51.20;99859.89;1777028;80;21133;-64
2022/01/27 03:02:05;;;;;;;11.78;9.23;;;;;;;7.26;51.15;99856.78;1779170;78;21110;-63
2022/01/27 03:04:34;;;;;;;15.00;10.65;;;;;;;7.27;51.12;99853.64;1767243;80;21034;-64
2022/01/27 03:07:04;;;;;;;14.20;10.03;;;;;;;7.26;51.10;99854.14;1774732;80;21002;-64
2022/01/27 03:09:33;;;;;;;11.50;9.23;;;;;;;7.25;51.06;99848.49;1778017;80;21028;-65
2022/01/27 03:12:03;;;;;;;12.85;9.10;;;;;;;7.25;51.06;99839.74;1779196;80;21025;-64
2022/01/27 03:14:29;;;;;;;12.90;9.40;;;;;;;7.25;51.03;99839.74;1753332;80;21933;-64
2022/01/27 03:16:58;;;;;;;11.80;9.20;;;;;;;7.25;50.99;99831.31;1779855;80;21080;-65
2022/01/27 03:19:27;;;;;;;13.20;9.43;;;;;;;7.25;50.98;99830.00;1788923;78;21048;-65
2022/01/27 03:21:55;;;;;;;10.72;8.23;;;;;;;7.25;50.95;99830.49;1755162;80;21046;-65
2022/01/27 03:24:24;;;;;;;11.50;9.05;;;;;;;7.25;50.92;99832.64;1741824;81;21041;-63
2022/01/27 03:26:53;;;;;;;13.20;9.88;;;;;;;7.25;50.91;99834.45;1772989;79;21216;-64
2022/01/27 03:29:20;;;;;;;11.28;8.55;;;;;;;7.25;50.88;99832.64;1773640;80;21056;-63
2022/01/27 03:31:47;;;;;;;13.45;9.95;;;;;;;7.24;50.86;99830.98;1768038;80;21036;-63
2022/01/27 03:34:15;;;;;;;12.47;8.88;;;;;;;7.24;50.83;99830.13;1778913;80;21040;-65
2022/01/27 03:36:41;;;;;;;12.88;8.75;;;;;;;7.24;50.83;99824.84;1778916;79;21024;-65
2022/01/27 03:39:08;;;;;;;12.60;9.28;;;;;;;7.22;50.78;99807.84;1761433;80;21956;-66
2022/01/27 03:41:38;;;;;;;13.05;9.83;;;;;;;7.23;50.77;99810.81;1780140;80;21096;-64
2022/01/27 03:44:05;;;;;;;10.80;8.13;;;;;;;7.23;50.74;99811.31;1792147;80;20977;-65
2022/01/27 03:46:32;;;;;;;11.85;8.78;;;;;;;7.22;50.70;99809.16;1765290;81;21075;-64
2022/01/27 03:48:58;;;;;;;11.63;8.58;;;;;;;7.23;50.67;99804.70;1746061;81;21034;-66
2022/01/27 03:51:24;;;;;;;11.65;8.70;;;;;;;7.22;50.65;99790.67;1759691;81;21097;-63
2022/01/27 03:53:51;;;;;;;11.93;8.90;;;;;;;7.22;50.63;99785.84;1780036;80;21088;-64
2022/01/27 03:56:18;;;;;;;12.73;9.83;;;;;;;7.22;50.59;99787.17;1774078;79;21048;-63
2022/01/27 03:58:44;;;;;;;11.03;8.48;;;;;;;7.21;50.58;99788.98;1777619;79;21020;-63
2022/01/27 04:01:11;;;;;;;10.88;8.65;;;;;;;7.22;50.57;99785.84;1767149;80;21029;-64
2022/01/27 04:03:38;;;;;;;9.98;7.95;;;;;;;7.20;50.53;99787.31;1781356;79;21528;-64
2022/01/27 04:06:07;;;;;;;10.65;8.13;;;;;;;7.21;50.50;99794.77;1767938;80;21025;-64
2022/01/27 04:08:37;;;;;;;11.18;9.25;;;;;;;7.21;50.48;99788.98;1761535;80;21029;-64
2022/01/27 04:11:07;;;;;;;10.35;8.28;;;;;;;7.19;50.45;99788.30;1775077;80;21068;-64
2022/01/27 04:13:33;;;;;;;13.15;8.25;;;;;;;7.19;50.44;99782.20;1773893;80;21032;-64
2022/01/27 04:15:59;;;;;;;12.18;8.50;;;;;;;7.19;50.43;99787.48;1781594;80;21559;-64
2022/01/27 04:18:26;;;;;;;11.40;8.25;;;;;;;7.17;50.40;99781.02;1783940;79;21013;-63
2022/01/27 04:20:52;;;;;;;11.10;7.92;;;;;;;7.16;50.36;99780.66;1762926;81;21570;-63
2022/01/27 04:23:19;;;;;;;9.20;7.08;;;;;;;7.17;50.33;99775.73;1784715;79;21033;-64
2022/01/27 04:25:47;;;;;;;10.08;7.50;;;;;;;7.16;50.32;99779.33;1769128;80;21596;-64
2022/01/27 04:28:21;;;;;;;11.38;7.92;;;;;;;7.16;50.31;99770.58;1794762;78;21453;-65
2022/01/27 04:30:43;;;;;;;9.35;7.35;;;;;;;7.14;50.29;99762.80;1770275;79;21063;-64
2022/01/27 04:33:09;;;;;;;11.15;7.92;;;;;;;7.14;50.26;99762.80;1793959;80;21508;-65
2022/01/27 04:35:42;;;;;;;10.28;8.10;;;;;;;7.13;50.26;99760.29;1792372;78;21053;-65
2022/01/27 04:48:19;;;;;;;11.38;8.00;;;;;;;7.08;50.19;99769.48;1753945;81;21569;-64
2022/01/27 04:50:45;;;;;;;10.50;7.10;;;;;;;7.07;50.17;99761.73;1765968;80;21287;-63
2022/01/27 04:53:19;;;;;;;11.78;8.00;;;;;;;7.07;50.16;99761.73;1781103;80;21146;-64
2022/01/27 04:55:39;;;;;;;11.22;7.90;;;;;;;7.06;50.14;99759.56;1764904;80;21037;-64
2022/01/27 04:58:11;;;;;;;9.98;7.28;;;;;;;7.05;50.13;99757.05;1756596;80;21577;-64
2022/01/27 05:00:35;;;;;;;10.72;7.50;;;;;;;7.05;50.10;99755.27;1769897;80;22429;-64
2022/01/27 05:03:10;;;;;;;10.80;7.60;;;;;;;7.04;50.09;99751.45;1766933;80;21040;-64
2022/01/27 05:05:37;;;;;;;12.35;8.43;;;;;;;7.03;50.09;99744.48;1766705;80;21150;-65
2022/01/27 05:07:59;;;;;;;10.50;6.95;;;;;;;7.02;50.05;99746.80;1770435;80;21041;-64
2022/01/27 05:10:31;;;;;;;9.60;7.60;;;;;;;7.01;50.04;99749.94;1768542;80;21040;-66
2022/01/27 05:13:16;;;;;;;9.65;7.08;;;;;;;7.01;50.04;99758.33;1770355;80;21061;-64
2022/01/27 05:15:42;;;;;;;9.58;6.92;;;;;;;7.00;50.00;99747.44;1779438;80;21092;-64
2022/01/27 05:18:03;;;;;;;10.48;7.15;;;;;;;6.98;49.98;99750.21;1788817;78;21077;-65
2022/01/27 05:20:30;;;;;;;10.30;7.75;;;;;;;6.97;49.99;99753.81;1774877;80;21033;-63
2022/01/27 05:22:56;;;;;;;9.73;7.60;;;;;;;6.97;49.98;99752.99;1778945;79;21365;-64
2022/01/27 05:25:23;;;;;;;9.70;7.35;;;;;;;6.96;49.97;99757.45;1766569;80;21560;-64
2022/01/27 05:27:50;;;;;;;9.43;7.00;;;;;;;6.95;49.95;99755.77;1770190;80;21037;-64
2022/01/27 05:30:16;;;;;;;9.70;7.22;;;;;;;6.95;49.93;99749.66;1776082;79;21120;-64
2022/01/27 05:32:43;;;;;;;12.13;7.10;;;;;;;6.95;49.92;99754.95;1782481;79;21061;-64
2022/01/27 05:35:09;;;;;;;8.73;6.60;;;;;;;6.94;49.91;99751.48;1765862;80;21518;-64
2022/01/27 05:37:35;;;;;;;9.43;7.45;;;;;;;6.94;49.88;99746.70;1766785;80;21080;-63
2022/01/27 05:40:03;;;;;;;10.30;7.37;;;;;;;6.93;49.85;99739.73;1790585;79;20985;-65
2022/01/27 05:42:30;;;;;;;9.68;6.83;;;;;;;6.93;49.85;99745.02;1790526;79;21155;-64
2022/01/27 05:44:56;;;;;;;10.23;7.67;;;;;;;6.92;49.82;99746.83;1808372;78;20990;-63
2022/01/27 05:47:22;;;;;;;8.90;7.17;;;;;;;6.92;49.82;99752.11;1767102;80;21016;-62
2022/01/27 05:49:49;;;;;;;10.23;7.70;;;;;;;6.91;49.80;99746.48;1795370;79;21019;-64
2022/01/27 05:52:16;;;;;;;9.78;7.42;;;;;;;6.90;49.78;99746.15;1792238;79;21191;-63
2022/01/27 05:54:43;;;;;;;9.05;6.92;;;;;;;6.90;49.76;99744.83;1764041;80;21078;-65
2022/01/27 05:57:09;;;;;;;8.78;6.87;;;;;;;6.90;49.75;99743.51;1763004;80;21033;-64
2022/01/27 05:59:35;;;;;;;9.68;7.17;;;;;;;6.90;49.75;99747.47;1761725;80;21540;-66
2022/01/27 06:02:02;;;;;;;8.85;6.80;;;;;;;6.89;49.74;99751.92;1790210;79;21041;-64
2022/01/27 06:04:29;;;;;;;9.33;6.97;;;;;;;6.89;49.72;99745.79;1743226;81;21199;-65
2022/01/27 06:06:56;;;;;;;8.20;6.35;;;;;;;6.88;49.70;99750.25;1774710;80;21136;-65
2022/01/27 06:09:22;;;;;;;8.75;6.75;;;;;;;6.89;49.69;99745.33;1778266;80;21438;-66
2022/01/27 06:11:48;;;;;;;9.45;6.65;;;;;;;6.88;49.67;99744.97;1769443;80;21026;-65
2022/01/27 06:14:15;;;;;;;10.32;6.30;;;;;;;6.89;49.67;99745.33;1762363;80;21021;-65
2022/01/27 06:16:44;;;;;;;9.50;7.03;;;;;;;6.89;49.66;99746.64;1780926;80;21025;-64
2022/01/27 06:19:10;;;;;;;9.23;6.90;;;;;;;6.90;49.63;99744.83;1776316;80;21146;-65
2022/01/27 06:21:36;;;;;;;9.85;6.80;;;;;;;6.91;49.59;99729.80;1778899;80;21727;-64
2022/01/27 06:24:05;;;;;;;8.55;6.22;;;;;;;6.92;49.59;99742.87;1779220;80;21111;-65
2022/01/27 06:26:32;;;;;;;9.53;7.20;;;;;;;6.92;49.56;99740.73;1775991;80;21072;-64
2022/01/27 06:28:58;;;;;;;8.68;6.87;;;;;;;6.92;49.52;99738.91;1775018;80;21481;-63
2022/01/27 06:31:25;;;;;;;9.95;7.05;;;;;;;6.94;49.52;99736.13;1775835;80;21147;-61
2022/01/27 06:33:56;;;;;;;9.53;7.05;;;;;;;6.94;49.47;99734.31;1768558;80;21546;-64
2022/01/27 06:36:19;;;;;;;10.00;7.08;;;;;;;6.96;49.45;99723.12;1762642;80;21591;-63
2022/01/27 06:38:46;;;;;;;8.95;7.05;;;;;;;6.97;49.44;99714.70;1770974;79;21044;-64
2022/01/27 06:41:14;;;;;;;8.18;6.78;;;;;;;6.99;49.43;99716.70;1753235;80;21108;-62
2022/01/27 06:43:40;;;;;;;8.48;6.55;;;;;;;7.00;49.40;99714.41;1775737;80;21861;-65
2022/01/27 06:46:06;;;;;;;9.70;6.90;;;;;;;7.00;49.36;99712.59;1782093;80;21022;-64
2022/01/27 06:48:33;;;;;;;10.03;7.08;;;;;;;7.02;49.35;99724.34;1769364;80;21026;-65
2022/01/27 06:51:01;;;;;;;10.38;8.05;;;;;;;7.03;49.34;99714.96;1780155;79;21107;-65
2022/01/27 06:53:27;;;;;;;9.08;7.17;;;;;;;7.04;49.63;99712.64;1766948;80;21057;-64
2022/01/27 06:55:54;;;;;;;8.10;6.83;;;;;;;7.06;49.79;99703.27;1776636;79;21132;-64
2022/01/27 06:58:21;;;;;;;8.95;6.80;;;;;;;7.09;49.79;99708.27;1760654;80;21050;-64
2022/01/27 07:00:47;;;;;;;8.33;6.40;;;;;;;7.11;49.78;99706.30;1761610;80;21048;-64
2022/01/27 07:03:14;;;;;;;9.40;7.25;;;;;;;7.12;49.72;99696.06;1781439;80;22221;-64
2022/01/27 07:05:41;;;;;;;9.88;7.28;;;;;;;7.13;49.69;99700.39;1778156;80;21053;-63
2022/01/27 07:08:08;;;;;;;8.98;7.17;;;;;;;7.15;49.63;99691.82;1783255;80;21041;-63
2022/01/27 07:10:35;;;;;;;11.12;7.95;;;;;;;7.16;49.59;99694.78;1782300;79;21144;-66
2022/01/27 07:13:01;;;;;;;9.40;7.25;;;;;;;7.18;49.53;99696.79;1784195;79;22036;-63
2022/01/27 07:15:28;;;;;;;9.53;7.40;;;;;;;7.19;49.48;99699.79;1783624;80;21088;-65
2022/01/27 07:17:55;;;;;;;10.45;7.35;;;;;;;7.21;49.44;99697.83;1757000;80;21029;-64
2022/01/27 07:20:22;;;;;;;10.90;7.87;;;;;;;7.22;49.40;99691.58;1757041;79;21279;-64
2022/01/27 07:22:48;;;;;;;10.43;7.90;;;;;;;7.24;49.37;99692.73;1787601;79;21003;-63
2022/01/27 07:25:14;;;;;;;9.98;7.40;;;;;;;7.25;49.31;99695.23;1782122;80;21029;-63
2022/01/27 07:27:41;;;;;;;8.38;6.78;;;;;;;7.27;49.28;99691.13;1775706;80;21061;-62
2022/01/27 07:30:09;;;;;;;9.93;7.83;;;;;;;7.27;49.24;99689.80;1757728;80;21108;-63
2022/01/27 07:32:38;;;;;;;10.63;8.08;;;;;;;7.28;49.20;99690.98;1758865;81;21101;-63
2022/01/27 07:35:06;;;;;;;10.10;7.58;;;;;;;7.30;49.15;99686.84;1756615;81;20996;-62
2022/01/27 07:37:33;;;;;;;10.30;8.43;;;;;;;7.30;49.12;99681.56;1763402;80;21078;-63
2022/01/27 07:39:59;;;;;;;8.20;6.85;;;;;;;7.31;49.09;99681.92;1767155;79;21086;-63
2022/01/27 07:42:26;;;;;;;9.88;7.97;;;;;;;7.33;49.07;99677.81;1755130;80;21049;-64
2022/01/27 07:44:53;;;;;;;9.23;7.33;;;;;;;7.33;49.04;99677.31;1771501;80;21926;-63
2022/01/27 07:47:19;;;;;;;11.08;7.70;;;;;;;7.35;49.01;99679.81;1769641;80;21488;-64
2022/01/27 07:49:46;;;;;;;9.23;7.65;;;;;;;7.37;49.00;99680.49;1758154;81;21094;-64
2022/01/27 07:52:12;;;;;;;10.05;7.80;;;;;;;7.38;48.96;99661.85;1787754;80;21025;-64
2022/01/27 07:54:39;;;;;;;10.18;8.03;;;;;;;7.40;48.94;99664.35;1786454;80;20988;-64
2022/01/27 07:57:05;;;;;;;9.98;7.95;;;;;;;7.42;48.93;99657.10;1756355;81;21065;-65
2022/01/27 07:59:32;;;;;;;11.43;9.20;;;;;;;7.44;48.88;99660.42;1752846;80;21036;-64
2022/01/27 08:02:01;;;;;;;11.12;8.18;;;;;;;7.45;48.85;99660.25;1759009;81;21050;-64
2022/01/27 08:04:27;;;;;;;9.93;7.87;;;;;;;7.47;48.83;99658.78;1763696;81;21522;-63
2022/01/27 08:06:54;;;;;;;11.57;8.53;;;;;;;7.50;48.79;99664.28;1762602;80;21031;-63
2022/01/27 08:09:20;;;;;;;10.08;8.05;;;;;;;7.52;48.76;99658.35;1762530;81;21097;-62
2022/01/27 08:11:47;;;;;;;9.73;8.45;;;;;;;7.54;48.73;99661.67;1755622;80;21034;-62
2022/01/27 08:14:15;;;;;;;10.38;8.45;;;;;;;7.55;48.71;99657.56;1763131;81;21035;-64
2022/01/27 08:16:42;;;;;;;11.83;8.73;;;;;;;7.57;48.69;99648.99;1765372;81;21538;-64
2022/01/27 08:19:09;;;;;;;10.55;8.33;;;;;;;7.60;48.66;99652.64;1765501;81;21101;-64
2022/01/27 08:21:36;;;;;;;10.43;8.80;;;;;;;7.61;48.64;99650.35;1745021;81;21228;-66
2022/01/27 08:24:07;;;;;;;10.60;8.50;;;;;;;7.63;48.61;99646.20;1751765;79;20988;-63
2022/01/27 08:26:45;;;;;;;10.45;8.28;;;;;;;7.64;48.58;99647.38;1774853;79;21061;-64
2022/01/27 08:31:42;;;;;;;11.43;8.40;;;;;;;7.68;48.54;99645.27;1779376;79;21140;-64
2022/01/27 08:34:04;;;;;;;10.35;8.73;;;;;;;7.70;48.52;99651.23;1778314;80;21158;-65
2022/01/27 08:36:30;;;;;;;10.82;8.50;;;;;;;7.71;48.51;99647.62;1776834;80;21062;-64
2022/01/27 08:38:56;;;;;;;10.25;8.93;;;;;;;7.73;48.48;99637.72;1778456;80;21010;-64
2022/01/27 08:41:22;;;;;;;13.62;8.75;;;;;;;7.75;48.48;99629.64;1783436;80;21479;-61
2022/01/27 08:43:53;;;;;;;10.32;9.10;;;;;;;7.77;48.44;99630.32;1783807;80;22113;-63
2022/01/27 08:46:17;;;;;;;11.28;9.33;;;;;;;7.79;48.43;99629.67;1777977;80;21207;-63
2022/01/27 08:48:45;;;;;;;10.32;8.90;;;;;;;7.81;48.42;99627.70;1781773;80;22176;-63
2022/01/27 08:51:14;;;;;;;10.28;8.68;;;;;;;7.82;48.40;99627.56;1784420;80;21025;-63
2022/01/27 08:53:41;;;;;;;11.15;8.78;;;;;;;7.85;48.38;99627.23;1771803;79;21109;-64
2022/01/27 08:56:09;;;;;;;9.70;8.70;;;;;;;7.87;48.38;99628.41;1764875;80;21250;-64
2022/01/27 08:58:35;;;;;;;12.13;10.15;;;;;;;7.89;48.37;99622.47;1764297;80;21146;-63
2022/01/27 09:01:03;;;;;;;11.22;9.30;;;;;;;7.90;48.33;99616.69;1776045;80;21028;-64
2022/01/27 09:03:30;;;;;;;10.25;8.98;;;;;;;7.93;48.32;99613.74;1784461;80;21111;-63
2022/01/27 09:05:56;;;;;;;11.25;8.70;;;;;;;7.96;48.30;99620.88;1775024;80;21013;-63
2022/01/27 09:08:23;;;;;;;11.38;8.73;;;;;;;7.97;48.27;99617.23;1780570;80;21199;-63
2022/01/27 09:10:49;;;;;;;11.45;8.93;;;;;;;7.99;48.29;99621.06;1772264;80;21506;-65
2022/01/27 09:13:18;;;;;;;12.68;9.08;;;;;;;8.00;48.27;99614.30;1778397;80;21030;-65
2022/01/27 09:15:44;;;;;;;12.47;9.68;;;;;;;8.01;48.23;99602.71;1774581;80;21106;-64
2022/01/27 09:18:14;;;;;;;12.63;9.60;;;;;;;8.03;48.20;99603.38;1772255;80;21102;-63
2022/01/27 09:20:42;;;;;;;11.57;9.43;;;;;;;8.05;48.20;99600.13;1778941;78;21067;-65
2022/01/27 09:23:13;;;;;;;11.08;9.35;;;;;;;8.08;48.17;99599.79;1770788;80;21553;-63
2022/01/27 09:25:42;;;;;;;12.73;9.43;;;;;;;8.11;48.15;99595.99;1762244;80;21534;-64
2022/01/27 09:28:07;;;;;;;10.93;8.90;;;;;;;8.14;48.14;99598.84;1765860;80;21054;-64
2022/01/27 09:30:33;;;;;;;10.55;8.88;;;;;;;8.18;48.11;99593.57;1762606;80;21108;-64
2022/01/27 09:33:00;;;;;;;12.23;9.83;;;;;;;8.23;48.10;99588.66;1771237;79;21608;-63
2022/01/27 09:35:28;;;;;;;11.73;8.80;;;;;;;8.29;48.07;99584.05;1765779;80;21149;-65
2022/01/27 09:37:55;;;;;;;12.70;9.63;;;;;;;8.37;48.03;99585.41;1773948;80;21053;-64
2022/01/27 09:40:21;;;;;;;12.37;9.78;;;;;;;8.45;47.98;99595.23;1771918;80;21034;-64
2022/01/27 09:42:51;;;;;;;11.53;9.90;;;;;;;8.52;47.97;99587.01;1764718;80;21545;-66
2022/01/27 09:45:17;;;;;;;12.68;9.48;;;;;;;8.59;47.89;99581.39;1766441;80;21534;-65
2022/01/27 09:47:52;;;;;;;12.65;9.65;;;;;;;8.65;47.84;99588.72;1759842;80;21201;-64
2022/01/27 09:52:42;;;;;;;11.50;8.90;;;;;;;8.72;47.77;99583.60;1761114;79;21060;-66
2022/01/27 09:55:11;;;;;;;11.22;9.50;;;;;;;8.75;47.74;99577.14;1765798;80;21037;-65
2022/01/27 09:57:37;;;;;;;12.47;9.80;;;;;;;8.76;47.71;99578.31;1773509;80;21521;-64
2022/01/27 10:00:06;;;;;;;14.90;10.03;;;;;;;8.77;47.70;99573.84;1766328;80;21130;-64
2022/01/27 10:02:35;;;;;;;12.15;9.88;;;;;;;8.77;47.70;99574.70;1750404;80;21360;-64
2022/01/27 10:05:02;;;;;;;11.88;9.58;;;;;;;8.78;47.71;99570.22;1769002;80;21105;-64
2022/01/27 10:07:41;;;;;;;11.57;9.98;;;;;;;8.77;47.71;99573.37;1769088;80;21077;-63
2022/01/27 10:10:14;;;;;;;11.40;9.38;;;;;;;8.78;47.70;99560.95;1765466;80;21100;-65
2022/01/27 10:12:49;;;;;;;11.85;9.28;;;;;;;8.77;47.68;99564.09;1769808;80;21142;-65
2022/01/27 10:15:19;;;;;;;12.37;9.53;;;;;;;8.76;47.69;99554.48;1772067;80;21032;-64
2022/01/27 10:18:11;;;;;;;11.35;9.85;;;;;;;8.75;47.70;99554.16;1767961;80;21024;-65
2022/01/27 10:20:42;;;;;;;11.75;10.10;;;;;;;8.76;47.72;99549.69;1772497;80;21092;-64
2022/01/27 10:23:13;;;;;;;10.78;8.88;;;;;;;8.74;47.73;99555.14;1772228;80;21665;-65
2022/01/27 10:25:46;;;;;;;12.95;9.63;;;;;;;8.74;47.74;99555.14;1770083;80;21152;-66
2022/01/27 10:29:28;;;;;;;11.85;9.73;;;;;;;8.72;47.76;99562.41;1770953;80;21446;-65
2022/01/27 10:31:05;;;;;;;10.70;9.00;;;;;;;8.71;47.75;99546.20;1731857;80;21529;-65
2022/01/27 10:34:01;;;;;;;13.53;10.10;;;;;;;8.72;47.76;99548.35;1777612;80;21151;-64
2022/01/27 10:36:40;;;;;;;11.80;9.25;;;;;;;8.70;47.77;99540.56;1755259;80;21011;-64
2022/01/27 10:39:19;;;;;;;11.43;9.35;;;;;;;8.68;47.80;99545.19;1769741;79;21055;-64
2022/01/27 10:42:08;;;;;;;12.47;9.90;;;;;;;8.68;47.82;99554.46;1794199;78;21047;-63
2022/01/27 10:44:53;;;;;;;11.20;9.53;;;;;;;8.65;47.84;99537.55;1804530;79;21056;-63
2022/01/27 10:47:26;;;;;;;13.08;10.43;;;;;;;8.64;47.86;99530.62;1791170;78;21017;-65
2022/01/27 10:49:57;;;;;;;12.00;10.10;;;;;;;8.64;47.87;99523.49;1794829;79;21548;-64
2022/01/27 10:52:30;;;;;;;11.85;10.63;;;;;;;8.63;47.86;99519.67;1793042;79;23236;-64
2022/01/27 10:54:57;;;;;;;12.73;10.18;;;;;;;8.62;47.89;99524.15;1793700;79;21032;-64
2022/01/27 10:57:26;;;;;;;16.32;12.23;;;;;;;8.63;47.88;99523.65;1769320;80;21038;-65
2022/01/27 11:00:10;;;;;;;11.83;10.15;;;;;;;8.62;47.88;99519.36;1769375;80;21030;-64
2022/01/27 11:03:05;;;;;;;10.90;9.28;;;;;;;8.63;47.90;99519.67;1765071;79;21076;-63
2022/01/27 11:05:38;;;;;;;11.60;9.90;;;;;;;8.63;47.88;99518.35;1771672;80;21349;-64
2022/01/27 11:08:04;;;;;;;12.05;10.75;;;;;;;8.63;47.88;99519.67;1742918;79;21030;-64
2022/01/27 11:10:31;;;;;;;12.68;10.65;;;;;;;8.62;47.90;99509.59;1772671;79;21048;-64
2022/01/27 11:12:59;;;;;;;14.53;11.60;;;;;;;8.62;47.87;99514.06;1768916;79;21528;-64
2022/01/27 11:15:26;;;;;;;13.28;10.93;;;;;;;8.63;47.90;99510.41;1773296;79;21058;-62
2022/01/27 11:17:54;;;;;;;12.55;10.80;;;;;;;8.62;47.90;99515.39;1772640;79;21123;-64
2022/01/27 11:20:27;;;;;;;12.00;10.20;;;;;;;8.62;47.89;99509.59;1774191;79;21030;-66
2022/01/27 11:27:53;;;;;;;12.13;10.82;;;;;;;8.62;47.85;99507.44;1762510;79;21061;-63
2022/01/27 11:30:42;;;;;;;14.38;11.40;;;;;;;8.63;47.85;99503.78;1745477;80;21533;-64
2022/01/27 11:33:16;;;;;;;11.57;9.98;;;;;;;8.62;47.86;99505.61;1765607;80;21064;-64
2022/01/27 11:35:43;;;;;;;12.90;10.48;;;;;;;8.61;47.85;99489.88;1778534;79;21370;-65
2022/01/27 11:39:46;;;;;;;13.10;11.65;;;;;;;8.64;47.85;99484.27;1847051;76;28525;-63
2022/01/27 11:42:13;;;;;;;12.45;11.15;;;;;;;8.62;47.85;99483.61;1801239;77;21013;-64
2022/01/27 11:44:43;;;;;;;14.68;11.38;;;;;;;8.61;47.84;99481.44;1813344;77;21134;-62
2022/01/27 11:47:17;;;;;;;13.43;11.10;;;;;;;8.61;47.84;99476.64;1815963;77;20910;-61
2022/01/27 11:49:58;;;;;;;12.60;11.30;;;;;;;8.61;47.86;99472.67;1822692;78;21041;-62
2022/01/27 11:52:30;;;;;;;15.03;12.15;;;;;;;8.60;47.86;99476.33;1776926;80;21573;-62
2022/01/27 11:55:00;;;;;;;14.33;11.50;;;;;;;8.59;47.88;99473.33;1750552;82;21457;-62
2022/01/27 11:57:43;;;;;;;16.50;12.23;;;;;;;8.60;47.88;99473.68;1746399;80;21105;-62
2022/01/27 12:00:16;;;;;;;13.13;11.77;;;;;;;8.59;47.89;99468.85;1756870;79;20977;-63
2022/01/27 12:03:07;;;;;;;13.65;11.78;;;;;;;8.58;47.89;99467.21;1752173;80;21714;-63
2022/01/27 12:05:36;;;;;;;13.93;11.28;;;;;;;8.58;47.90;99466.39;1771695;80;21561;-63
2022/01/27 12:08:20;;;;;;;14.05;11.97;;;;;;;8.58;47.93;99473.02;1761025;80;21518;-63
2022/01/27 12:10:58;;;;;;;13.48;11.35;;;;;;;8.58;47.93;99471.69;1778480;80;21018;-63
2022/01/27 12:13:34;;;;;;;15.05;12.25;;;;;;;8.58;47.94;99466.39;1758454;79;21029;-65
2022/01/27 12:19:09;;;;;;;15.88;12.37;;;;;;;8.56;47.97;99466.55;1777158;80;21523;-66
2022/01/27 12:21:55;;;;;;;14.85;11.68;;;;;;;8.55;47.98;99466.20;1763469;80;21585;-64
2022/01/27 12:24:28;;;;;;;14.50;11.65;;;;;;;8.55;47.97;99460.91;1780245;80;21210;-64
2022/01/27 12:27:08;;;;;;;14.03;11.78;;;;;;;8.54;48.00;99461.09;1780813;80;21054;-64
2022/01/27 12:29:40;;;;;;;14.63;12.07;;;;;;;8.54;48.03;99461.09;1779790;80;21058;-64
2022/01/27 12:32:24;;;;;;;13.98;11.88;;;;;;;8.53;48.06;99459.42;1780841;80;21002;-64
2022/01/27 12:35:00;;;;;;;14.50;11.93;;;;;;;8.53;48.06;99459.42;1780848;79;21112;-63
2022/01/27 12:37:39;;;;;;;14.65;12.35;;;;;;;8.53;48.08;99460.74;1779797;80;21100;-63
2022/01/27 12:40:17;;;;;;;16.07;12.33;;;;;;;8.53;48.07;99463.39;1775755;79;21546;-63
2022/01/27 12:42:58;;;;;;;15.28;12.47;;;;;;;8.52;48.09;99463.05;1766697;80;22204;-64